Time;durP1;ratioP1;P1;durP2;ratioP2;P2;SDS_P1;SDS_P2;PMS_P1;PMS_P2;Temp;Humidity;BMP_temperature;BMP_pressure;BME280_temperature;BME280_humidity;BME280_pressure;Samples;Min_cycle;Max_cycle;Signal;HPM_P1;HPM_P2
2023/09/12 00:00:42;;;;;;;;;;;;;;;-146.25;100.00;52051.91;2097034;28;38548;-68
2023/09/12 00:01:44;;;;;;;;;;;;;;;-146.25;100.00;52039.75;2097075;28;31045;-69
2023/09/12 00:02:50;;;;;;;;;;;;;;;-146.25;100.00;52027.56;2097820;28;19980;-68
2023/09/12 00:03:52;;;;;;;;;;;;;;;-146.25;100.00;52051.91;2097296;28;37145;-67
2023/09/12 00:04:58;;;;;;;;;;;;;;;-146.25;100.00;52070.16;2097803;28;19972;-66
2023/09/12 00:06:01;;;;;;;;;;;;;;;-146.25;100.00;52066.09;2096855;28;38023;-69
2023/09/12 00:07:03;;;;;;;;;;;;;;;-146.25;100.00;52039.75;2097400;28;33162;-69
2023/09/12 00:08:05;;;;;;;;;;;;;;;-146.25;100.00;52039.75;2097373;28;34313;-68
2023/09/12 00:09:06;;;;;;;;;;;;;;;-146.25;100.00;52047.84;2096956;28;37441;-67
2023/09/12 00:10:08;;;;;;;;;;;;;;;-146.25;100.00;52060.00;2098075;28;20682;-67
2023/09/12 00:11:12;;;;;;;;;;;;;;;-146.25;100.00;52064.06;2097094;28;39482;-69
2023/09/12 00:12:14;;;;;;;;;;;;;;;-146.25;100.00;52035.69;2097718;28;33856;-66
2023/09/12 00:13:16;;;;;;;;;;;;;;;-146.25;100.00;52035.69;2096777;28;36129;-67
2023/09/12 00:14:18;;;;;;;;;;;;;;;-146.25;100.00;52035.69;2096898;28;38417;-69
2023/09/12 00:15:20;;;;;;;;;;;;;;;-146.25;100.00;52025.53;2097580;28;19921;-69
2023/09/12 00:16:21;;;;;;;;;;;;;;;-146.25;100.00;52055.97;2096863;28;35398;-68
2023/09/12 00:17:23;;;;;;;;;;;;;;;-146.25;100.00;52055.97;2097361;28;36975;-69
2023/09/12 00:18:26;;;;;;;;;;;;;;;-146.25;100.00;52047.84;2097768;28;19928;-68
2023/09/12 00:19:27;;;;;;;;;;;;;;;-146.25;100.00;52076.22;2097210;28;37037;-69
2023/09/12 00:20:29;;;;;;;;;;;;;;;-146.25;100.00;52064.06;2097624;28;21627;-68
2023/09/12 00:21:31;;;;;;;;;;;;;;;-146.25;100.00;52055.97;2096712;28;36675;-68
2023/09/12 00:22:32;;;;;;;;;;;;;;;-146.25;100.00;52021.50;2097201;28;38530;-68
2023/09/12 00:23:34;;;;;;;;;;;;;;;-146.25;100.00;52062.03;2097690;28;20985;-69
2023/09/12 00:24:38;;;;;;;;;;;;;;;-146.25;100.00;52051.91;2096810;28;40605;-68
2023/09/12 00:25:40;;;;;;;;;;;;;;;-146.25;100.00;52027.56;2096710;28;19927;-69
2023/09/12 00:26:42;;;;;;;;;;;;;;;-146.25;100.00;52053.94;2096560;28;38400;-68
2023/09/12 00:27:43;;;;;;;;;;;;;;;-146.25;100.00;52041.75;2097333;28;35110;-68
2023/09/12 00:28:45;;;;;;;;;;;;;;;-146.25;100.00;52064.06;2095934;28;38377;-68
2023/09/12 00:29:47;;;;;;;;;;;;;;;-146.25;100.00;52047.84;2096950;28;29516;-68
2023/09/12 00:30:48;;;;;;;;;;;;;;;-146.25;100.00;52080.28;2097784;28;19932;-69
2023/09/12 00:31:50;;;;;;;;;;;;;;;-146.25;100.00;52058.00;2096677;28;34674;-67
2023/09/12 00:32:52;;;;;;;;;;;;;;;-146.25;100.00;52033.66;2097842;28;21272;-69
2023/09/12 00:33:55;;;;;;;;;;;;;;;-146.25;100.00;52090.44;2097859;28;19925;-68
2023/09/12 00:34:57;;;;;;;;;;;;;;;-146.25;100.00;52074.22;2097493;28;30267;-68
2023/09/12 00:35:59;;;;;;;;;;;;;;;-146.25;100.00;52078.25;2097341;28;32737;-67
2023/09/12 00:37:06;;;;;;;;;;;;;;;-146.25;100.00;52072.19;2096836;28;19913;-67
2023/09/12 00:38:09;;;;;;;;;;;;;;;-146.25;100.00;52072.19;2096798;28;25259;-68
2023/09/12 00:39:12;;;;;;;;;;;;;;;-146.25;100.00;52068.13;2097637;28;20009;-69
2023/09/12 00:40:14;;;;;;;;;;;;;;;-146.25;100.00;52084.34;2097234;28;31156;-66
2023/09/12 00:41:19;;;;;;;;;;;;;;;-146.25;100.00;52035.69;2097674;28;20067;-68
2023/09/12 00:42:21;;;;;;;;;;;;;;;-146.25;100.00;52062.03;2097311;28;30279;-67
2023/09/12 00:43:23;;;;;;;;;;;;;;;-146.25;100.00;52049.88;2097410;28;28100;-67
2023/09/12 00:44:27;;;;;;;;;;;;;;;-146.25;100.00;52068.13;2097024;28;29312;-66
2023/09/12 00:45:29;;;;;;;;;;;;;;;-146.25;100.00;52082.31;2097304;28;27583;-67
2023/09/12 00:46:31;;;;;;;;;;;;;;;-146.25;100.00;52035.69;2097138;28;27544;-67
2023/09/12 00:47:33;;;;;;;;;;;;;;;-146.25;100.00;52045.81;2097606;28;19917;-67
2023/09/12 00:48:37;;;;;;;;;;;;;;;-146.25;100.00;52055.97;2096786;28;37235;-67
2023/09/12 00:49:40;;;;;;;;;;;;;;;-146.25;100.00;52019.47;2097223;28;20764;-68
2023/09/12 00:50:44;;;;;;;;;;;;;;;-146.25;100.00;52045.81;2096534;28;26307;-66
2023/09/12 00:51:46;;;;;;;;;;;;;;;-146.25;100.00;52076.22;2096502;28;31858;-67
2023/09/12 00:52:48;;;;;;;;;;;;;;;-146.25;100.00;52062.03;2096849;28;28033;-67
2023/09/12 00:53:53;;;;;;;;;;;;;;;-146.25;100.00;52051.91;2096239;28;30985;-67
2023/09/12 00:54:55;;;;;;;;;;;;;;;-146.25;100.00;52078.25;2097166;28;29339;-68
2023/09/12 00:55:59;;;;;;;;;;;;;;;-146.25;100.00;52058.00;2097367;28;29581;-67
2023/09/12 00:57:01;;;;;;;;;;;;;;;-146.25;100.00;52041.75;2097127;28;28150;-68
2023/09/12 00:58:03;;;;;;;;;;;;;;;-146.25;100.00;52078.25;2097059;28;26150;-68
2023/09/12 00:59:05;;;;;;;;;;;;;;;-146.25;100.00;52070.16;2096848;28;27422;-68
2023/09/12 01:00:12;;;;;;;;;;;;;;;-146.25;100.00;52043.78;2097396;28;25423;-67
2023/09/12 01:01:13;;;;;;;;;;;;;;;-146.25;100.00;52076.22;2097192;28;32037;-67
2023/09/12 01:02:19;;;;;;;;;;;;;;;-146.25;100.00;52082.31;2097456;28;20001;-67
2023/09/12 01:03:21;;;;;;;;;;;;;;;-146.25;100.00;52070.16;2096633;28;32414;-67
2023/09/12 01:04:25;;;;;;;;;;;;;;;-146.25;100.00;52066.09;2097276;28;25107;-66
2023/09/12 01:05:35;;;;;;;;;;;;;;;-146.25;100.00;52031.63;2097163;28;35071;-67
2023/09/12 01:06:38;;;;;;;;;;;;;;;-146.25;100.00;52053.94;2096069;28;31404;-67
2023/09/12 01:07:43;;;;;;;;;;;;;;;-146.25;100.00;52084.34;2096903;28;20879;-67
2023/09/12 01:08:47;;;;;;;;;;;;;;;-146.25;100.00;52023.53;2096166;28;31907;-69
2023/09/12 01:09:48;;;;;;;;;;;;;;;-146.25;100.00;52066.09;2096487;28;28891;-70
2023/09/12 01:10:53;;;;;;;;;;;;;;;-146.25;100.00;52023.53;2096284;28;23741;-68
2023/09/12 01:11:54;;;;;;;;;;;;;;;-146.25;100.00;52043.78;2096859;28;20033;-68
2023/09/12 01:12:58;;;;;;;;;;;;;;;-146.25;100.00;52074.22;2096679;28;31555;-68
2023/09/12 01:13:59;;;;;;;;;;;;;;;-146.25;100.00;52118.81;2096591;28;28691;-68
2023/09/12 01:15:04;;;;;;;;;;;;;;;-146.25;100.00;52080.28;2096326;28;19979;-69
2023/09/12 01:16:06;;;;;;;;;;;;;;;-146.25;100.00;52064.06;2095904;28;31689;-69
2023/09/12 01:17:07;;;;;;;;;;;;;;;-146.25;100.00;52094.47;2096794;28;35877;-69
2023/09/12 01:18:09;;;;;;;;;;;;;;;-146.25;100.00;52033.66;2096060;28;37505;-69
2023/09/12 01:19:17;;;;;;;;;;;;;;;-146.25;100.00;52082.31;2096373;28;36249;-69
2023/09/12 01:20:30;;;;;;;;;;;;;;;-146.25;100.00;52045.81;2097391;28;31139;-70
2023/09/12 01:21:47;;;;;;;;;;;;;;;-146.25;100.00;52055.97;2096543;28;19925;-70
2023/09/12 01:23:07;;;;;;;;;;;;;;;-146.25;100.00;52058.00;2096657;28;28553;-70
2023/09/12 01:24:29;;;;;;;;;;;;;;;-146.25;100.00;52082.31;2095996;28;34623;-70
2023/09/12 01:26:00;;;;;;;;;;;;;;;-146.25;100.00;52035.69;2096460;28;25433;-70
2023/09/12 01:27:28;;;;;;;;;;;;;;;-146.25;100.00;52080.28;2097158;28;19936;-70
2023/09/12 01:28:34;;;;;;;;;;;;;;;-146.25;100.00;52072.19;2097638;28;22099;-70
2023/09/12 01:29:38;;;;;;;;;;;;;;;-146.25;100.00;52045.81;2096266;28;19932;-68
2023/09/12 01:30:42;;;;;;;;;;;;;;;-146.25;100.00;52100.56;2096522;28;20045;-69
2023/09/12 01:31:45;;;;;;;;;;;;;;;-146.25;100.00;52086.38;2096245;28;20741;-69
2023/09/12 01:32:48;;;;;;;;;;;;;;;-146.25;100.00;52076.22;2096775;28;20087;-69
2023/09/12 01:33:55;;;;;;;;;;;;;;;-146.25;100.00;52108.66;2097079;28;22531;-70
2023/09/12 01:34:56;;;;;;;;;;;;;;;-146.25;100.00;52027.56;2096166;28;21927;-70
2023/09/12 01:35:59;;;;;;;;;;;;;;;-146.25;100.00;52084.34;2096657;28;19932;-68
2023/09/12 01:37:01;;;;;;;;;;;;;;;-146.25;100.00;52072.19;2097428;28;20058;-68
2023/09/12 01:38:02;;;;;;;;;;;;;;;-146.25;100.00;52076.22;2097127;28;22608;-69
2023/09/12 01:39:06;;;;;;;;;;;;;;;-146.25;100.00;52060.00;2097562;28;19925;-68
2023/09/12 01:40:12;;;;;;;;;;;;;;;-146.25;100.00;52049.88;2096130;28;28558;-68
2023/09/12 01:41:14;;;;;;;;;;;;;;;-146.25;100.00;52072.19;2088691;28;19979;-68
2023/09/12 01:42:20;;;;;;;;;;;;;;;-146.25;100.00;52049.88;2096083;28;21631;-68
2023/09/12 01:43:25;;;;;;;;;;;;;;;-146.25;100.00;52090.44;2097114;28;20939;-68
2023/09/12 01:44:28;;;;;;;;;;;;;;;-146.25;100.00;52078.25;2096795;28;23385;-70
2023/09/12 01:45:29;;;;;;;;;;;;;;;-146.25;100.00;52072.19;2096854;28;30370;-68
2023/09/12 01:46:35;;;;;;;;;;;;;;;-146.25;100.00;52088.41;2096677;28;26543;-67
2023/09/12 01:47:39;;;;;;;;;;;;;;;-146.25;100.00;52049.88;2097030;28;29672;-67
2023/09/12 01:48:42;;;;;;;;;;;;;;;-146.25;100.00;52037.72;2096507;28;33727;-69
2023/09/12 01:49:49;;;;;;;;;;;;;;;-146.25;100.00;52068.13;2097535;28;19924;-65
2023/09/12 01:50:51;;;;;;;;;;;;;;;-146.25;100.00;52098.53;2097318;28;19986;-67
2023/09/12 01:51:53;;;;;;;;;;;;;;;-146.25;100.00;52043.78;2096599;28;19928;-68
2023/09/12 01:52:55;;;;;;;;;;;;;;;-146.25;100.00;52072.19;2096101;28;30065;-67
2023/09/12 01:53:58;;;;;;;;;;;;;;;-146.25;100.00;52092.44;2096251;28;20065;-67
2023/09/12 01:55:02;;;;;;;;;;;;;;;-146.25;100.00;52084.34;2088223;28;19921;-67
2023/09/12 01:56:04;;;;;;;;;;;;;;;-146.25;100.00;52112.72;2088348;28;19932;-67
2023/09/12 01:57:08;;;;;;;;;;;;;;;-146.25;100.00;52088.41;2096220;28;19916;-67
2023/09/12 01:58:11;;;;;;;;;;;;;;;-146.25;100.00;52035.69;2096439;28;19924;-66
2023/09/12 01:59:13;;;;;;;;;;;;;;;-146.25;100.00;52076.22;2088198;28;20744;-68
2023/09/12 02:00:18;;;;;;;;;;;;;;;-146.25;100.00;52064.06;2087356;28;20047;-68
2023/09/12 02:01:20;;;;;;;;;;;;;;;-146.25;100.00;52096.50;2096134;28;19917;-69
2023/09/12 02:02:22;;;;;;;;;;;;;;;-146.25;100.00;52045.81;2095872;28;31144;-67
2023/09/12 02:03:24;;;;;;;;;;;;;;;-146.25;100.00;52090.44;2097108;28;20002;-67
2023/09/12 02:04:26;;;;;;;;;;;;;;;-146.25;100.00;52062.03;2096827;28;31116;-68
2023/09/12 02:05:28;;;;;;;;;;;;;;;-146.25;100.00;52076.22;2097548;28;20805;-67
2023/09/12 02:06:30;;;;;;;;;;;;;;;-146.25;100.00;52108.66;2096261;28;19988;-67
2023/09/12 02:07:35;;;;;;;;;;;;;;;-146.25;100.00;52100.56;2087677;28;26340;-67
2023/09/12 02:08:37;;;;;;;;;;;;;;;-146.25;100.00;52068.13;2088808;28;20088;-67
2023/09/12 02:09:39;;;;;;;;;;;;;;;-146.25;100.00;52076.22;2096393;28;19916;-67
2023/09/12 02:10:40;;;;;;;;;;;;;;;-146.25;100.00;52080.28;2104219;28;29572;-67
2023/09/12 02:11:42;;;;;;;;;;;;;;;-146.25;100.00;52090.44;2087390;28;21595;-68
2023/09/12 02:12:43;;;;;;;;;;;;;;;-146.25;100.00;52051.91;2088377;28;20978;-67
2023/09/12 02:13:45;;;;;;;;;;;;;;;-146.25;100.00;52072.19;2096761;28;20397;-68
2023/09/12 02:14:47;;;;;;;;;;;;;;;-146.25;100.00;52047.84;2096261;28;33283;-67
2023/09/12 02:15:50;;;;;;;;;;;;;;;-146.25;100.00;52051.91;2087490;28;32955;-68
2023/09/12 02:16:52;;;;;;;;;;;;;;;-146.25;100.00;52051.91;2087962;28;25308;-68
2023/09/12 02:17:55;;;;;;;;;;;;;;;-146.25;100.00;52086.38;2096202;28;20769;-68
2023/09/12 02:18:56;;;;;;;;;;;;;;;-146.25;100.00;52066.09;2087416;28;28836;-68
2023/09/12 02:20:00;;;;;;;;;;;;;;;-146.25;100.00;52058.00;2088369;28;21043;-68
2023/09/12 02:21:02;;;;;;;;;;;;;;;-146.25;100.00;52114.75;2087352;28;29994;-67
2023/09/12 02:22:04;;;;;;;;;;;;;;;-146.25;100.00;52090.44;2095895;28;30712;-68
2023/09/12 02:23:06;;;;;;;;;;;;;;;-146.25;100.00;52108.66;2096669;28;27351;-68
2023/09/12 02:24:07;;;;;;;;;;;;;;;-146.25;100.00;52066.09;2096408;28;20022;-67
2023/09/12 02:25:09;;;;;;;;;;;;;;;-146.25;100.00;52080.28;2096355;28;25949;-68
2023/09/12 02:26:12;;;;;;;;;;;;;;;-146.25;100.00;52066.09;2096424;28;33804;-68
2023/09/12 02:27:13;;;;;;;;;;;;;;;-146.25;100.00;52122.88;2097096;28;19920;-68
2023/09/12 02:28:15;;;;;;;;;;;;;;;-146.25;100.00;52053.94;2097614;28;19925;-67
2023/09/12 02:29:17;;;;;;;;;;;;;;;-146.25;100.00;52082.31;2095921;28;26149;-68
2023/09/12 02:30:18;;;;;;;;;;;;;;;-146.25;100.00;52047.84;2096075;28;27179;-68
2023/09/12 02:31:20;;;;;;;;;;;;;;;-146.25;100.00;52086.38;2097113;28;20718;-68
2023/09/12 02:32:22;;;;;;;;;;;;;;;-146.25;100.00;52096.50;2095649;28;26582;-68
2023/09/12 02:33:26;;;;;;;;;;;;;;;-146.25;100.00;52126.91;2088302;28;20822;-69
2023/09/12 02:34:28;;;;;;;;;;;;;;;-146.25;100.00;52084.34;2088092;28;19913;-69
2023/09/12 02:35:32;;;;;;;;;;;;;;;-146.25;100.00;52068.13;2096003;28;25484;-68
2023/09/12 02:36:34;;;;;;;;;;;;;;;-146.25;100.00;52066.09;2095663;28;27244;-69
2023/09/12 02:37:35;;;;;;;;;;;;;;;-146.25;100.00;52080.28;2095781;28;36701;-68
2023/09/12 02:38:37;;;;;;;;;;;;;;;-146.25;100.00;52066.09;2095594;28;20837;-67
2023/09/12 02:39:39;;;;;;;;;;;;;;;-146.25;100.00;52076.22;2096147;28;25306;-67
2023/09/12 02:40:40;;;;;;;;;;;;;;;-146.25;100.00;52064.06;2096649;28;19921;-67
2023/09/12 02:41:42;;;;;;;;;;;;;;;-146.25;100.00;52096.50;2095900;28;19924;-68
2023/09/12 02:42:43;;;;;;;;;;;;;;;-146.25;100.00;52096.50;2095376;28;35034;-68
2023/09/12 02:43:50;;;;;;;;;;;;;;;-146.25;100.00;52066.09;2097071;28;23954;-69
2023/09/12 02:44:52;;;;;;;;;;;;;;;-146.25;100.00;52088.41;2095747;28;20035;-67
2023/09/12 02:45:54;;;;;;;;;;;;;;;-146.25;100.00;52076.22;2096064;28;30715;-67
2023/09/12 02:46:55;;;;;;;;;;;;;;;-146.25;100.00;52098.53;2096151;28;20063;-67
2023/09/12 02:47:57;;;;;;;;;;;;;;;-146.25;100.00;52108.66;2087667;28;20484;-67
2023/09/12 02:48:59;;;;;;;;;;;;;;;-146.25;100.00;52106.66;2087752;28;19928;-69
2023/09/12 02:50:01;;;;;;;;;;;;;;;-146.25;100.00;52090.44;2088639;28;20061;-69
2023/09/12 02:51:02;;;;;;;;;;;;;;;-146.25;100.00;52096.50;2095990;28;26218;-67
2023/09/12 02:52:07;;;;;;;;;;;;;;;-146.25;100.00;52086.38;2095903;28;19917;-69
2023/09/12 02:53:08;;;;;;;;;;;;;;;-146.25;100.00;52090.44;2094765;28;33380;-69
2023/09/12 02:54:12;;;;;;;;;;;;;;;-146.25;100.00;52116.78;2088173;28;20808;-69
2023/09/12 02:55:14;;;;;;;;;;;;;;;-146.25;100.00;52078.25;2089333;28;19921;-67
2023/09/12 02:56:16;;;;;;;;;;;;;;;-146.25;100.00;52084.34;2089492;28;30133;-67
2023/09/12 02:57:17;;;;;;;;;;;;;;;-146.25;100.00;52096.50;2088865;28;20811;-67
2023/09/12 02:58:19;;;;;;;;;;;;;;;-146.25;100.00;52078.25;2089369;28;19909;-67
2023/09/12 02:59:20;;;;;;;;;;;;;;;-146.25;100.00;52110.69;2088381;28;32009;-67
2023/09/12 03:00:22;;;;;;;;;;;;;;;-146.25;100.00;52088.41;2089593;28;19921;-66
2023/09/12 03:01:26;;;;;;;;;;;;;;;-146.25;100.00;52098.53;2089184;28;19947;-67
2023/09/12 03:02:29;;;;;;;;;;;;;;;-146.25;100.00;52104.63;2089241;28;25419;-67
2023/09/12 03:03:30;;;;;;;;;;;;;;;-146.25;100.00;52068.13;2089395;28;19913;-67
2023/09/12 03:04:36;;;;;;;;;;;;;;;-146.25;100.00;52072.19;2090026;28;19925;-69
2023/09/12 03:05:39;;;;;;;;;;;;;;;-146.25;100.00;52102.59;2089104;28;19917;-69
2023/09/12 03:06:41;;;;;;;;;;;;;;;-146.25;100.00;52072.19;2081126;28;19922;-69
2023/09/12 03:07:43;;;;;;;;;;;;;;;-146.25;100.00;52114.75;2089408;28;19924;-69
2023/09/12 03:08:46;;;;;;;;;;;;;;;-146.25;100.00;52114.75;2090069;28;19936;-69
2023/09/12 03:09:49;;;;;;;;;;;;;;;-146.25;100.00;52078.25;2089762;28;20762;-69
2023/09/12 03:10:58;;;;;;;;;;;;;;;-146.25;100.00;52096.50;2090251;28;20753;-68
2023/09/12 03:12:02;;;;;;;;;;;;;;;-146.25;100.00;52116.78;2090304;28;22756;-67
2023/09/12 03:13:04;;;;;;;;;;;;;;;-146.25;100.00;52120.84;2080988;28;19921;-67
2023/09/12 03:14:06;;;;;;;;;;;;;;;-146.25;100.00;52082.31;2080630;28;19929;-66
2023/09/12 03:15:11;;;;;;;;;;;;;;;-146.25;100.00;52088.41;2081011;28;19975;-67
2023/09/12 03:16:14;;;;;;;;;;;;;;;-146.25;100.00;52114.75;2081246;28;19929;-68
2023/09/12 03:17:18;;;;;;;;;;;;;;;-146.25;100.00;52078.25;2089752;28;20682;-67
2023/09/12 03:18:23;;;;;;;;;;;;;;;-146.25;100.00;52084.34;2089564;28;20020;-66
2023/09/12 03:19:25;;;;;;;;;;;;;;;-146.25;100.00;52100.56;2089125;28;19932;-67
2023/09/12 03:20:26;;;;;;;;;;;;;;;-146.25;100.00;52104.63;2088990;28;19971;-68
2023/09/12 03:21:28;;;;;;;;;;;;;;;-146.25;100.00;52100.56;2088779;28;30811;-68
2023/09/12 03:22:32;;;;;;;;;;;;;;;-146.25;100.00;52092.44;2088933;28;20342;-68
2023/09/12 03:23:34;;;;;;;;;;;;;;;-146.25;100.00;52141.13;2089110;28;19971;-69
2023/09/12 03:24:36;;;;;;;;;;;;;;;-146.25;100.00;52118.81;2080738;28;19922;-69
2023/09/12 03:25:39;;;;;;;;;;;;;;;-146.25;100.00;52112.72;2081040;28;20775;-69
2023/09/12 03:26:40;;;;;;;;;;;;;;;-146.25;100.00;52096.50;2089210;28;19948;-69
2023/09/12 03:27:42;;;;;;;;;;;;;;;-146.25;100.00;52092.44;2088441;28;29190;-69
2023/09/12 03:28:44;;;;;;;;;;;;;;;-146.25;100.00;52060.00;2089145;28;19998;-69
2023/09/12 03:29:48;;;;;;;;;;;;;;;-146.25;100.00;52106.66;2093206;28;19920;-70
2023/09/12 03:30:50;;;;;;;;;;;;;;;-146.25;100.00;52112.72;2089384;28;19921;-67
2023/09/12 03:31:52;;;;;;;;;;;;;;;-146.25;100.00;52104.63;2097824;28;19920;-67
2023/09/12 03:32:54;;;;;;;;;;;;;;;-146.25;100.00;52128.94;2097110;28;19916;-68
2023/09/12 03:33:56;;;;;;;;;;;;;;;-146.25;100.00;52118.81;2097202;28;20772;-69
2023/09/12 03:34:58;;;;;;;;;;;;;;;-146.25;100.00;52100.56;2098092;28;19986;-68
2023/09/12 03:35:59;;;;;;;;;;;;;;;-146.25;100.00;52110.69;2088791;28;24195;-69
2023/09/12 03:37:01;;;;;;;;;;;;;;;-146.25;100.00;52072.19;2088717;28;20812;-69
2023/09/12 03:38:03;;;;;;;;;;;;;;;-146.25;100.00;52094.47;2089092;28;19928;-67
2023/09/12 03:39:08;;;;;;;;;;;;;;;-146.25;100.00;52092.44;2088932;28;19921;-68
2023/09/12 03:40:11;;;;;;;;;;;;;;;-146.25;100.00;52076.22;2097586;28;20416;-67
2023/09/12 03:41:13;;;;;;;;;;;;;;;-146.25;100.00;52104.63;2097137;28;20887;-68
2023/09/12 03:42:14;;;;;;;;;;;;;;;-146.25;100.00;52082.31;2097090;28;19920;-68
2023/09/12 03:43:16;;;;;;;;;;;;;;;-146.25;100.00;52106.66;2088562;28;22575;-67
2023/09/12 03:44:18;;;;;;;;;;;;;;;-146.25;100.00;52084.34;2088868;28;19967;-69
2023/09/12 03:45:19;;;;;;;;;;;;;;;-146.25;100.00;52084.34;2097004;28;19924;-66
2023/09/12 03:46:23;;;;;;;;;;;;;;;-146.25;100.00;52082.31;2097145;28;20697;-68
2023/09/12 03:47:25;;;;;;;;;;;;;;;-146.25;100.00;52080.28;2096880;28;19980;-67
2023/09/12 03:48:27;;;;;;;;;;;;;;;-146.25;100.00;52118.81;2088767;28;20971;-67
2023/09/12 03:49:29;;;;;;;;;;;;;;;-146.25;100.00;52080.28;2088940;28;19925;-69
2023/09/12 03:50:31;;;;;;;;;;;;;;;-146.25;100.00;52092.44;2097331;28;19924;-66
2023/09/12 03:51:34;;;;;;;;;;;;;;;-146.25;100.00;52116.78;2088841;28;20563;-66
2023/09/12 03:52:36;;;;;;;;;;;;;;;-146.25;100.00;52104.63;2089195;28;19924;-68
2023/09/12 03:53:37;;;;;;;;;;;;;;;-146.25;100.00;52102.59;2088389;28;25102;-66
2023/09/12 03:54:41;;;;;;;;;;;;;;;-146.25;100.00;52118.81;2089237;28;19980;-66
2023/09/12 03:55:43;;;;;;;;;;;;;;;-146.25;100.00;52086.38;2088682;28;19929;-67
2023/09/12 03:56:44;;;;;;;;;;;;;;;-146.25;100.00;52112.72;2081200;28;20914;-66
2023/09/12 03:57:47;;;;;;;;;;;;;;;-146.25;100.00;52120.84;2080358;28;19921;-67
2023/09/12 03:58:51;;;;;;;;;;;;;;;-146.25;100.00;52102.59;2089189;28;19975;-66
2023/09/12 03:59:53;;;;;;;;;;;;;;;-146.25;100.00;52094.47;2088307;28;20844;-67
2023/09/12 04:00:54;;;;;;;;;;;;;;;-146.25;100.00;52124.91;2080698;28;19925;-67
2023/09/12 04:01:56;;;;;;;;;;;;;;;-146.25;100.00;52092.44;2088560;28;20014;-67
2023/09/12 04:03:00;;;;;;;;;;;;;;;-146.25;100.00;52086.38;2088820;28;20012;-67
2023/09/12 04:04:02;;;;;;;;;;;;;;;-146.25;100.00;52102.59;2088526;28;20344;-69
2023/09/12 04:05:05;;;;;;;;;;;;;;;-146.25;100.00;52122.88;2097269;28;19909;-69
2023/09/12 04:06:07;;;;;;;;;;;;;;;-146.25;100.00;52084.34;2087345;28;24546;-69
2023/09/12 04:07:08;;;;;;;;;;;;;;;-146.25;100.00;52116.78;2088887;28;19988;-68
2023/09/12 04:08:10;;;;;;;;;;;;;;;-146.25;100.00;52088.41;2088848;28;20940;-67
2023/09/12 04:09:12;;;;;;;;;;;;;;;-146.25;100.00;52137.06;2097312;28;20091;-67
2023/09/12 04:10:13;;;;;;;;;;;;;;;-146.25;100.00;52122.88;2088884;28;19933;-67
2023/09/12 04:11:18;;;;;;;;;;;;;;;-146.25;100.00;52110.69;2088478;28;27187;-66
2023/09/12 04:12:25;;;;;;;;;;;;;;;-146.25;100.00;52135.03;2089291;28;27753;-67
2023/09/12 04:13:31;;;;;;;;;;;;;;;-146.25;100.00;52072.19;2088028;28;37227;-67
2023/09/12 04:14:33;;;;;;;;;;;;;;;-146.25;100.00;52116.78;2080914;28;19921;-69
2023/09/12 04:15:38;;;;;;;;;;;;;;;-146.25;100.00;52120.84;2080845;28;19991;-67
2023/09/12 04:16:40;;;;;;;;;;;;;;;-146.25;100.00;52098.53;2088605;28;20834;-69
2023/09/12 04:17:41;;;;;;;;;;;;;;;-146.25;100.00;52108.66;2088790;28;19917;-68
2023/09/12 04:18:44;;;;;;;;;;;;;;;-146.25;100.00;52106.66;2088832;28;19917;-68
2023/09/12 04:19:46;;;;;;;;;;;;;;;-146.25;100.00;52092.44;2088442;28;31486;-67
2023/09/12 04:20:48;;;;;;;;;;;;;;;-146.25;100.00;52112.72;2088800;28;20051;-68
2023/09/12 04:21:49;;;;;;;;;;;;;;;-146.25;100.00;52133.00;2096687;28;33663;-67
2023/09/12 04:22:51;;;;;;;;;;;;;;;-146.25;100.00;52112.72;2105536;28;19920;-66
2023/09/12 04:23:53;;;;;;;;;;;;;;;-146.25;100.00;52106.66;2097331;28;19913;-70
2023/09/12 04:24:54;;;;;;;;;;;;;;;-146.25;100.00;52098.53;2096945;28;25809;-67
2023/09/12 04:25:56;;;;;;;;;;;;;;;-146.25;100.00;52137.06;2096037;28;20071;-68
2023/09/12 04:27:02;;;;;;;;;;;;;;;-146.25;100.00;52151.25;2087797;28;28264;-68
2023/09/12 04:28:06;;;;;;;;;;;;;;;-146.25;100.00;52135.03;2089190;28;19921;-67
2023/09/12 04:29:08;;;;;;;;;;;;;;;-146.25;100.00;52100.56;2088247;28;25807;-67
2023/09/12 04:30:10;;;;;;;;;;;;;;;-146.25;100.00;52110.69;2080283;28;19929;-68
2023/09/12 04:31:12;;;;;;;;;;;;;;;-146.25;100.00;52086.38;2088610;28;19935;-68
2023/09/12 04:32:13;;;;;;;;;;;;;;;-146.25;100.00;52122.88;2088828;28;20139;-66
2023/09/12 04:33:15;;;;;;;;;;;;;;;-146.25;100.00;52147.19;2080292;28;19921;-68
2023/09/12 04:34:17;;;;;;;;;;;;;;;-146.25;100.00;52118.81;2088393;28;24273;-67
2023/09/12 04:35:19;;;;;;;;;;;;;;;-146.25;100.00;52120.84;2088642;28;20068;-67
2023/09/12 04:36:23;;;;;;;;;;;;;;;-146.25;100.00;52100.56;2088725;28;19921;-67
2023/09/12 04:37:25;;;;;;;;;;;;;;;-146.25;100.00;52143.13;2088124;28;28381;-67
2023/09/12 04:38:27;;;;;;;;;;;;;;;-146.25;100.00;52149.22;2088534;28;20059;-68
2023/09/12 04:39:29;;;;;;;;;;;;;;;-146.25;100.00;52120.84;2088694;28;20026;-67
2023/09/12 04:40:31;;;;;;;;;;;;;;;-146.25;100.00;52155.31;2088270;28;29968;-67
2023/09/12 04:41:35;;;;;;;;;;;;;;;-146.25;100.00;52114.75;2087931;28;22086;-68
2023/09/12 04:42:37;;;;;;;;;;;;;;;-146.25;100.00;52120.84;2096539;28;24763;-66
2023/09/12 04:43:38;;;;;;;;;;;;;;;-146.25;100.00;52090.44;2088483;28;19928;-67
2023/09/12 04:44:43;;;;;;;;;;;;;;;-146.25;100.00;52157.34;2088700;28;19925;-67
2023/09/12 04:45:45;;;;;;;;;;;;;;;-146.25;100.00;52153.28;2088687;28;26220;-67
2023/09/12 04:46:46;;;;;;;;;;;;;;;-146.25;100.00;52189.78;2088332;28;27596;-67
2023/09/12 04:47:48;;;;;;;;;;;;;;;-146.25;100.00;52128.94;2080210;28;19918;-68
2023/09/12 04:48:50;;;;;;;;;;;;;;;-146.25;100.00;52130.97;2088694;28;20729;-67
2023/09/12 04:49:52;;;;;;;;;;;;;;;-146.25;100.00;52128.94;2088604;28;20014;-68
2023/09/12 04:50:55;;;;;;;;;;;;;;;-146.25;100.00;52163.41;2088793;28;20876;-67
2023/09/12 04:51:57;;;;;;;;;;;;;;;-146.25;100.00;52118.81;2079687;28;32025;-67
2023/09/12 04:52:58;;;;;;;;;;;;;;;-146.25;100.00;52135.03;2088525;28;19913;-67
2023/09/12 04:54:00;;;;;;;;;;;;;;;-146.25;100.00;52133.00;2088614;28;27268;-67
2023/09/12 04:55:01;;;;;;;;;;;;;;;-146.25;100.00;52092.44;2088759;28;20819;-67
2023/09/12 04:56:04;;;;;;;;;;;;;;;-146.25;100.00;52133.00;2095646;28;19921;-68
2023/09/12 04:57:05;;;;;;;;;;;;;;;-146.25;100.00;52096.50;2097032;28;19925;-67
2023/09/12 04:58:07;;;;;;;;;;;;;;;-146.25;100.00;52128.94;2096633;28;21881;-68
2023/09/12 04:59:09;;;;;;;;;;;;;;;-146.25;100.00;52137.06;2096497;28;35967;-67
2023/09/12 05:00:13;;;;;;;;;;;;;;;-146.25;100.00;52108.66;2088066;28;19921;-68
2023/09/12 05:01:15;;;;;;;;;;;;;;;-146.25;100.00;52135.03;2096867;28;21882;-67
2023/09/12 05:02:17;;;;;;;;;;;;;;;-146.25;100.00;52157.34;2097631;28;19934;-68
2023/09/12 05:03:19;;;;;;;;;;;;;;;-146.25;100.00;52086.38;2096903;28;32889;-67
2023/09/12 05:04:21;;;;;;;;;;;;;;;-146.25;100.00;52149.22;2096750;28;19921;-67
2023/09/12 05:05:23;;;;;;;;;;;;;;;-146.25;100.00;52084.34;2088221;28;20809;-67
2023/09/12 05:06:25;;;;;;;;;;;;;;;-146.25;100.00;52124.91;2088687;28;20719;-68
2023/09/12 05:07:26;;;;;;;;;;;;;;;-146.25;100.00;52133.00;2088444;28;20047;-68
2023/09/12 05:08:28;;;;;;;;;;;;;;;-146.25;100.00;52100.56;2079463;28;23104;-68
2023/09/12 05:09:30;;;;;;;;;;;;;;;-146.25;100.00;52090.44;2096466;28;30159;-68
2023/09/12 05:10:33;;;;;;;;;;;;;;;-146.25;100.00;52120.84;2097253;28;19924;-68
2023/09/12 05:11:35;;;;;;;;;;;;;;;-146.25;100.00;52135.03;2096344;28;28330;-68
2023/09/12 05:12:37;;;;;;;;;;;;;;;-146.25;100.00;52130.97;2096401;28;20150;-68
2023/09/12 05:13:41;;;;;;;;;;;;;;;-146.25;100.00;52169.50;2097643;28;20266;-68
2023/09/12 05:14:42;;;;;;;;;;;;;;;-146.25;100.00;52106.66;2096110;28;19920;-67
2023/09/12 05:15:44;;;;;;;;;;;;;;;-146.25;100.00;52122.88;2096913;28;20059;-67